Time;durP1;ratioP1;P1;durP2;ratioP2;P2;SDS_P1;SDS_P2;PMS_P1;PMS_P2;Temp;Humidity;BMP_temperature;BMP_pressure;BME280_temperature;BME280_humidity;BME280_pressure;Samples;Min_cycle;Max_cycle;Signal;HPM_P1;HPM_P2
2021/03/22 00:05:58;;;;;;;22.57;3.90;;;3.60;99.90;;;4.51;100.00;98631.88;5072569;28;20443;-79
2021/03/22 00:12:32;;;;;;;21.00;4.50;;;3.70;99.90;;;4.47;100.00;98629.72;5072270;28;20447;-79
2021/03/22 00:19:06;;;;;;;13.40;4.00;;;3.80;99.90;;;4.47;100.00;98630.53;5072704;28;20444;-79
2021/03/22 00:25:41;;;;;;;12.00;4.90;;;3.70;99.90;;;4.48;100.00;98629.56;5072259;28;20481;-79
2021/03/22 00:32:09;;;;;;;10.60;4.00;;;3.80;99.90;;;4.46;100.00;98622.88;5072571;28;20459;-79
2021/03/22 00:38:44;;;;;;;16.57;4.27;;;3.80;99.90;;;4.53;100.00;98619.63;5072443;28;20787;-79
2021/03/22 00:45:20;;;;;;;19.70;4.57;;;3.80;99.90;;;4.46;100.00;98617.72;5072346;28;20434;-79
2021/03/22 00:51:54;;;;;;;21.03;4.67;;;3.50;99.90;;;4.25;100.00;98615.22;5072042;28;20538;-80
2021/03/22 00:58:21;;;;;;;18.33;4.47;;;3.50;99.90;;;4.36;100.00;98597.00;5075743;28;20471;-79
2021/03/22 01:05:16;;;;;;;13.93;4.30;;;3.50;99.90;;;4.28;100.00;98599.41;5095861;28;20423;-79
2021/03/22 01:11:50;;;;;;;21.63;4.17;;;3.60;99.90;;;4.46;100.00;98603.00;5095696;28;20469;-79
2021/03/22 01:18:28;;;;;;;17.00;4.67;;;3.60;99.90;;;4.49;100.00;98597.53;5095866;28;20415;-81
2021/03/22 01:24:56;;;;;;;12.20;4.00;;;3.70;99.90;;;4.57;100.00;98592.50;5095847;28;20446;-79
2021/03/22 01:31:30;;;;;;;24.33;4.90;;;3.90;99.90;;;4.62;100.00;98591.28;5095332;28;20423;-79
2021/03/22 01:38:06;;;;;;;8.47;3.70;;;4.00;99.90;;;4.65;100.00;98586.63;5095184;28;20419;-79
2021/03/22 01:44:46;;;;;;;23.53;5.00;;;3.90;99.90;;;4.69;100.00;98574.22;5095046;28;20423;-79
2021/03/22 01:51:13;;;;;;;16.53;4.97;;;4.10;99.90;;;4.68;100.00;98575.19;5094938;28;20418;-80
2021/03/22 01:57:47;;;;;;;23.63;4.20;;;4.10;99.90;;;4.79;100.00;98575.84;5094690;28;20458;-79
2021/03/22 02:09:20;;;;;;;24.03;4.60;;;4.00;99.90;;;4.76;100.00;98583.09;5094697;28;20462;-79
2021/03/22 02:16:06;;;;;;;14.10;4.37;;;4.10;99.90;;;4.73;100.00;98591.97;5094484;28;20533;-79
2021/03/22 02:23:12;;;;;;;15.37;4.10;;;3.90;99.90;;;4.68;100.00;98601.09;5094474;28;20473;-80
2021/03/22 02:30:15;;;;;;;9.70;3.63;;;3.80;99.90;;;4.66;100.00;98582.28;5094274;28;20512;-79
2021/03/22 02:37:21;;;;;;;11.63;3.77;;;4.00;99.90;;;4.67;100.00;98583.91;5094184;28;20477;-80
2021/03/22 02:44:02;;;;;;;15.83;4.30;;;3.90;99.90;;;4.50;100.00;98588.84;5094175;28;20422;-80
2021/03/22 02:50:40;;;;;;;16.20;3.60;;;3.70;99.90;;;4.58;100.00;98596.72;5093794;28;20450;-80
2021/03/22 02:57:23;;;;;;;17.30;3.60;;;3.90;99.90;;;4.58;100.00;98586.34;5093783;28;20856;-79
2021/03/22 03:08:10;;;;;;;18.80;3.37;;;3.90;99.90;;;4.69;100.00;98588.00;5093623;28;20767;-80
2021/03/22 03:15:08;;;;;;;9.40;3.00;;;3.90;99.90;;;4.69;100.00;98594.94;5093352;28;20773;-79
2021/03/22 03:21:53;;;;;;;15.40;3.27;;;4.00;99.90;;;4.74;100.00;98603.13;5093240;28;20446;-80
2021/03/22 03:28:26;;;;;;;13.83;4.30;;;4.00;99.90;;;4.80;100.00;98594.81;5093375;28;20472;-79
2021/03/22 03:35:07;;;;;;;16.70;3.50;;;4.00;99.90;;;4.79;100.00;98598.38;5093004;28;20477;-79
2021/03/22 03:41:41;;;;;;;14.13;3.10;;;4.10;99.90;;;4.86;99.96;98602.06;5092956;28;20583;-79
2021/03/22 03:48:14;;;;;;;13.90;3.43;;;4.20;99.90;;;4.84;100.00;98591.00;5092862;28;20919;-80
2021/03/22 03:54:49;;;;;;;10.10;3.00;;;4.20;99.90;;;4.88;100.00;98597.53;5092802;28;20419;-79
2021/03/22 04:01:24;;;;;;;12.70;3.70;;;4.20;99.90;;;4.81;100.00;98607.66;5092585;28;20537;-79
2021/03/22 04:08:17;;;;;;;7.67;2.47;;;4.10;99.90;;;4.86;98.91;98609.84;5092946;28;20854;-79
2021/03/22 04:14:52;;;;;;;12.63;3.33;;;4.20;99.90;;;4.88;98.76;98613.09;5092681;28;20460;-79
2021/03/22 04:21:28;;;;;;;6.80;2.57;;;4.20;99.90;;;4.96;99.06;98611.44;5093080;28;20416;-79
2021/03/22 04:28:03;;;;;;;9.40;3.40;;;4.30;99.90;;;4.97;99.00;98614.84;5092690;28;20426;-80
2021/03/22 04:34:38;;;;;;;8.67;4.80;;;4.30;99.90;;;4.92;99.23;98611.88;5096437;28;20410;-80
2021/03/22 04:45:14;;;;;;;14.27;3.13;;;4.20;99.90;;;4.98;100.00;98616.50;5096125;28;20430;-79
2021/03/22 04:51:49;;;;;;;31.73;11.77;;;4.30;99.90;;;4.94;100.00;98625.50;5096296;28;20461;-79
2021/03/22 04:58:23;;;;;;;14.80;3.00;;;4.20;99.90;;;4.96;99.48;98626.97;5095902;28;20418;-79
2021/03/22 05:09:09;;;;;;;20.77;4.73;;;4.30;99.90;;;5.01;100.00;98629.16;5095721;28;20441;-82
2021/03/22 05:15:44;;;;;;;9.67;3.13;;;4.30;99.90;;;5.00;100.00;98624.94;5095488;28;20499;-79
2021/03/22 05:22:18;;;;;;;15.33;3.57;;;4.20;99.90;;;5.01;100.00;98624.81;5095457;28;20445;-79
2021/03/22 05:28:46;;;;;;;21.30;4.10;;;4.30;99.90;;;5.01;100.00;98630.00;5095389;28;20827;-79
2021/03/22 05:35:18;;;;;;;7.30;3.70;;;4.30;99.90;;;5.00;100.00;98628.34;5095255;28;20787;-80
2021/03/22 05:42:04;;;;;;;14.77;4.50;;;4.20;99.90;;;4.89;100.00;98633.69;5094847;28;20423;-80
2021/03/22 05:49:02;;;;;;;10.77;3.57;;;4.30;99.90;;;4.92;100.00;98633.41;5094727;28;20855;-80
2021/03/22 05:55:52;;;;;;;12.87;5.10;;;4.30;99.90;;;4.90;100.00;98637.09;5095759;28;21118;-80
2021/03/22 06:02:38;;;;;;;14.30;4.57;;;4.20;99.90;;;4.93;100.00;98639.41;5094990;28;20458;-80
2021/03/22 06:09:39;;;;;;;9.83;3.67;;;4.20;99.90;;;4.88;100.00;98647.59;5094535;28;20461;-79
2021/03/22 06:16:25;;;;;;;13.33;4.00;;;4.30;99.90;;;4.93;100.00;98647.16;5094466;28;20950;-79
2021/03/22 06:22:56;;;;;;;28.33;9.17;;;4.20;99.90;;;4.94;100.00;98649.63;5095300;28;20768;-79
2021/03/22 06:29:36;;;;;;;13.43;5.00;;;4.30;99.90;;;4.95;100.00;98646.09;5095019;28;20784;-78
2021/03/22 06:36:13;;;;;;;19.60;4.00;;;4.30;99.90;;;4.98;100.00;98652.78;5094524;28;20414;-78
2021/03/22 06:43:09;;;;;;;10.00;4.10;;;4.30;99.90;;;5.00;100.00;98666.41;5094398;28;20466;-78
2021/03/22 06:49:39;;;;;;;10.73;4.40;;;4.30;99.90;;;5.01;100.00;98675.81;5094559;28;20469;-78
2021/03/22 06:56:24;;;;;;;10.63;3.57;;;4.30;99.90;;;5.04;100.00;98671.19;5094200;28;20431;-78
2021/03/22 07:03:01;;;;;;;8.97;4.17;;;4.40;99.90;;;5.11;100.00;98666.25;5093894;28;20493;-78
2021/03/22 07:09:46;;;;;;;14.63;3.97;;;4.20;99.90;;;5.07;100.00;98677.84;5093899;28;20983;-78
2021/03/22 07:16:23;;;;;;;23.90;4.10;;;4.40;99.90;;;5.14;100.00;98688.53;5093813;28;20511;-78
2021/03/22 07:23:35;;;;;;;5.50;3.13;;;4.50;99.90;;;5.27;100.00;98682.09;5093625;28;20533;-78
2021/03/22 07:30:25;;;;;;;11.10;3.30;;;4.40;99.90;;;5.23;100.00;98691.09;5093480;28;20517;-78
2021/03/22 07:37:04;;;;;;;9.50;3.30;;;4.60;99.90;;;5.27;100.00;98700.25;5093705;28;20515;-78
2021/03/22 07:44:06;;;;;;;7.40;3.43;;;4.70;99.90;;;5.45;100.00;98708.13;5093394;28;20913;-78
2021/03/22 07:50:49;;;;;;;17.30;4.27;;;4.90;99.90;;;5.58;100.00;98696.53;5093468;28;20461;-78
2021/03/22 07:57:37;;;;;;;14.47;4.97;;;4.80;99.90;;;5.69;100.00;98692.97;5093307;28;20465;-78
2021/03/22 08:08:31;;;;;;;8.83;2.73;;;5.00;99.90;;;5.87;99.34;98703.44;5099962;28;20419;-79
2021/03/22 08:15:26;;;;;;;4.10;2.47;;;5.10;99.90;;;5.94;97.91;98718.31;5099664;28;20826;-78
2021/03/22 08:22:11;;;;;;;7.93;2.53;;;5.20;99.90;;;5.98;99.88;98722.25;5099794;28;20429;-78
2021/03/22 08:29:02;;;;;;;6.97;2.63;;;5.30;99.90;;;6.08;99.55;98724.81;5099682;28;20469;-78
2021/03/22 08:35:42;;;;;;;14.37;2.60;;;5.40;99.90;;;6.06;98.65;98731.94;5099681;28;20414;-78
2021/03/22 08:42:24;;;;;;;3.17;2.40;;;5.40;99.90;;;6.14;97.44;98736.44;5100006;28;20419;-79
2021/03/22 08:49:02;;;;;;;10.03;2.97;;;5.40;99.90;;;6.16;97.19;98748.28;5099488;28;20423;-79
2021/03/22 08:55:47;;;;;;;7.50;3.03;;;5.50;99.90;;;6.20;95.83;98754.84;5099463;28;20414;-79
2021/03/22 09:02:26;;;;;;;8.70;2.60;;;5.50;99.90;;;6.24;93.94;98756.22;5099278;28;20507;-79
2021/03/22 09:09:29;;;;;;;6.30;2.77;;;5.40;99.90;;;6.16;94.20;98758.69;5099256;28;20419;-79
2021/03/22 09:16:38;;;;;;;7.20;3.03;;;5.50;99.90;;;6.33;94.19;98762.31;5098697;28;20435;-79
2021/03/22 09:27:32;;;;;;;3.20;1.90;;;5.70;99.90;;;6.28;91.28;98749.75;5095886;28;20486;-79
2021/03/22 09:34:04;;;;;;;2.90;1.97;;;5.60;99.90;;;6.38;91.96;98753.16;5095628;28;20498;-79
2021/03/22 09:41:04;;;;;;;4.43;2.37;;;5.70;99.80;;;6.45;89.27;98762.00;5095696;28;20465;-78
2021/03/22 09:47:40;;;;;;;6.07;2.53;;;5.90;99.90;;;6.48;91.35;98759.13;5095517;28;20470;-79
2021/03/22 09:54:43;;;;;;;3.60;2.20;;;5.80;99.90;;;6.50;89.68;98759.78;5095334;28;20462;-79
2021/03/22 10:01:41;;;;;;;3.07;2.20;;;5.90;99.90;;;6.47;90.65;98769.63;5095164;28;20423;-79
2021/03/22 10:13:22;;;;;;;10.07;3.67;;;5.90;99.90;;;6.62;91.23;98773.41;5074820;28;20946;-79
2021/03/22 10:20:21;;;;;;;6.27;3.70;;;6.10;99.90;;;6.77;91.37;98782.34;5074759;28;20420;-79
2021/03/22 10:27:26;;;;;;;3.60;3.00;;;6.10;99.90;;;6.80;91.00;98783.84;5074700;28;20832;-78
2021/03/22 10:34:02;;;;;;;8.90;3.10;;;6.00;99.90;;;6.76;89.31;98793.72;5074698;28;20473;-79
2021/03/22 10:40:40;;;;;;;5.30;2.70;;;6.10;99.70;;;6.72;90.30;98787.16;5074341;28;20490;-79
2021/03/22 10:47:14;;;;;;;7.67;2.80;;;6.00;99.40;;;6.82;89.21;98781.91;5074145;28;20407;-79
2021/03/22 10:54:02;;;;;;;7.63;3.23;;;6.00;99.10;;;6.82;87.79;98787.13;5074087;28;20551;-79
2021/03/22 11:00:42;;;;;;;4.73;3.03;;;6.10;99.20;;;6.74;89.49;98789.63;5073845;28;20461;-79
2021/03/22 11:07:28;;;;;;;5.20;3.23;;;6.10;99.80;;;6.80;89.50;98782.09;5083966;28;20533;-79
2021/03/22 11:10:48;;;;;;;5.60;3.43;;;6.10;99.80;;;6.87;89.89;98790.13;5094151;28;20450;-79
2021/03/22 11:17:26;;;;;;;5.60;2.60;;;6.20;99.90;;;6.93;89.68;98789.53;5093842;28;20515;-79
2021/03/22 11:23:57;;;;;;;10.17;3.50;;;6.20;99.20;;;6.76;88.38;98811.91;5093686;28;20926;-79
2021/03/22 11:30:39;;;;;;;6.27;3.23;;;6.20;99.90;;;6.79;88.72;98816.00;5093666;28;20942;-79
2021/03/22 11:37:21;;;;;;;5.00;3.30;;;6.10;99.80;;;6.85;89.11;98807.63;5093568;28;20414;-79
2021/03/22 11:44:05;;;;;;;7.33;3.30;;;6.20;99.90;;;6.85;89.96;98799.81;5093500;28;20423;-78
2021/03/22 11:50:44;;;;;;;7.10;3.23;;;6.10;99.90;;;7.00;91.14;98803.59;5093422;28;20470;-79
2021/03/22 11:57:32;;;;;;;5.73;3.20;;;6.20;99.50;;;7.01;90.19;98807.81;5093576;28;20458;-79
2021/03/22 12:04:17;;;;;;;6.40;3.60;;;6.30;99.80;;;7.06;88.95;98809.00;5093176;28;20415;-79
2021/03/22 12:15:50;;;;;;;5.17;3.33;;;6.30;99.60;;;7.13;88.96;98809.25;5072985;28;20416;-79
2021/03/22 12:22:25;;;;;;;7.30;3.37;;;6.20;99.90;;;7.04;89.97;98802.34;5073250;28;20496;-79
2021/03/22 12:29:00;;;;;;;5.80;3.67;;;6.30;99.90;;;6.93;92.04;98810.31;5073023;28;20440;-80
2021/03/22 12:35:39;;;;;;;5.27;4.33;;;6.30;99.90;;;6.92;94.24;98803.47;5072751;28;20847;-80
2021/03/22 12:42:14;;;;;;;6.43;4.17;;;6.30;99.90;;;6.98;93.77;98810.69;5072644;28;20523;-80
2021/03/22 12:48:47;;;;;;;10.27;4.40;;;6.40;99.90;;;6.98;93.54;98810.69;5072678;28;20471;-80
2021/03/22 12:55:24;;;;;;;6.93;4.43;;;6.40;99.90;;;7.01;92.95;98807.81;5076253;28;20486;-80
2021/03/22 13:01:57;;;;;;;10.00;4.77;;;6.50;99.90;;;7.04;94.01;98807.53;5076162;28;20431;-80
2021/03/22 13:08:29;;;;;;;7.83;4.53;;;6.40;99.90;;;7.03;92.65;98801.50;5076271;28;20452;-80
2021/03/22 13:15:40;;;;;;;5.93;3.87;;;6.30;99.90;;;7.15;91.88;98817.69;5096531;28;20486;-79
2021/03/22 13:22:21;;;;;;;6.20;4.47;;;6.50;99.90;;;7.24;89.95;98803.84;5096000;28;20411;-80
2021/03/22 13:29:04;;;;;;;8.87;4.47;;;6.60;99.90;;;7.28;89.60;98799.97;5096005;28;20548;-80
2021/03/22 13:35:34;;;;;;;8.57;4.53;;;6.60;99.80;;;7.44;90.16;98792.31;5095764;28;20434;-80
2021/03/22 13:42:09;;;;;;;6.43;4.20;;;6.80;99.90;;;7.46;89.78;98798.19;5095806;28;20419;-81
2021/03/22 13:48:42;;;;;;;5.77;4.17;;;6.80;99.90;;;7.56;88.24;98809.38;5095606;28;20521;-80
2021/03/22 13:55:20;;;;;;;5.60;4.23;;;6.90;99.50;;;7.61;88.68;98806.28;5095414;28;20516;-80
2021/03/22 14:01:47;;;;;;;5.10;3.60;;;6.90;99.40;;;7.62;87.64;98792.31;5095392;28;20849;-80
2021/03/22 14:08:22;;;;;;;8.17;3.60;;;6.90;99.80;;;7.59;86.41;98803.03;5095210;28;20435;-80
2021/03/22 14:15:05;;;;;;;4.40;3.90;;;7.00;99.40;;;7.61;86.43;98795.88;5094983;28;20470;-79
2021/03/22 14:21:39;;;;;;;9.50;3.90;;;7.10;99.30;;;7.70;86.66;98786.38;5094956;28;21025;-80
2021/03/22 14:28:07;;;;;;;6.47;4.63;;;7.00;99.30;;;7.73;87.14;98793.88;5094710;28;20469;-81
2021/03/22 14:34:42;;;;;;;8.90;4.70;;;7.10;99.00;;;7.71;86.41;98785.38;5094044;28;20470;-82
2021/03/22 14:41:16;;;;;;;7.57;4.50;;;7.10;99.50;;;7.72;86.26;98776.63;5094151;28;20570;-82
2021/03/22 14:47:51;;;;;;;5.67;4.60;;;7.10;99.10;;;7.79;86.79;98772.44;5094142;28;20446;-82
2021/03/22 14:54:20;;;;;;;7.40;4.27;;;7.10;99.30;;;7.79;86.04;98782.84;5093924;28;20512;-82
2021/03/22 15:00:54;;;;;;;8.00;4.83;;;7.20;99.40;;;7.74;86.23;98785.09;5093667;28;20411;-82
2021/03/22 15:07:27;;;;;;;7.27;3.90;;;7.00;99.00;;;7.63;86.84;98780.13;5093881;28;20419;-83
2021/03/22 15:14:06;;;;;;;25.40;13.50;;;7.00;99.50;;;7.63;88.48;98782.72;5093539;28;20572;-87
2021/03/22 15:20:35;;;;;;;7.17;4.60;;;6.90;99.80;;;7.62;87.91;98783.69;5093408;28;20427;-81
2021/03/22 15:27:04;;;;;;;14.10;5.23;;;6.90;99.80;;;7.56;88.75;98783.34;5093421;28;20489;-83
2021/03/22 15:33:41;;;;;;;14.00;5.57;;;6.90;99.70;;;7.53;88.88;98788.03;5093159;28;20578;-80
2021/03/22 15:40:18;;;;;;;9.47;5.90;;;6.80;99.80;;;7.63;89.01;98793.16;5093264;28;20427;-81
2021/03/22 15:46:52;;;;;;;12.47;6.40;;;6.80;99.90;;;7.65;89.49;98781.59;5093595;28;20423;-81
2021/03/22 15:53:21;;;;;;;9.13;6.00;;;6.90;99.90;;;7.49;90.51;98790.09;5092775;28;20968;-80
2021/03/22 15:59:49;;;;;;;10.13;5.50;;;6.90;99.90;;;7.54;90.47;98792.25;5093215;28;20484;-81
2021/03/22 16:06:24;;;;;;;8.87;5.40;;;6.90;99.90;;;7.55;90.19;98796.50;5092798;28;20561;-81
2021/03/22 16:17:58;;;;;;;8.53;5.17;;;6.90;99.90;;;7.52;90.68;98802.81;5092812;28;20906;-81
2021/03/22 16:24:32;;;;;;;12.67;5.80;;;6.70;99.90;;;7.48;91.13;98804.06;5092615;28;20419;-80
2021/03/22 16:31:01;;;;;;;9.23;6.10;;;6.90;99.90;;;7.46;91.85;98813.78;5096747;28;20418;-80
2021/03/22 16:37:29;;;;;;;6.67;5.60;;;6.80;99.90;;;7.38;92.38;98813.75;5096692;28;20465;-81
2021/03/22 16:44:05;;;;;;;8.77;5.70;;;6.60;99.90;;;7.46;92.27;98819.00;5096523;28;20419;-80
2021/03/22 16:50:41;;;;;;;14.37;6.87;;;6.70;99.90;;;7.54;92.16;98821.69;5096487;28;20771;-80
2021/03/22 16:57:16;;;;;;;12.97;6.43;;;6.80;99.90;;;7.55;93.76;98818.13;5096418;28;20427;-80
2021/03/22 17:03:51;;;;;;;10.83;6.60;;;6.80;99.90;;;7.53;94.16;98834.88;5096202;28;20427;-81
2021/03/22 17:10:27;;;;;;;11.30;7.27;;;6.70;99.90;;;7.55;93.83;98833.75;5096087;28;20519;-81
2021/03/22 17:17:22;;;;;;;9.77;6.90;;;6.80;99.90;;;7.51;93.38;98842.00;5095885;28;20415;-81
2021/03/22 17:23:57;;;;;;;10.20;6.00;;;6.70;99.90;;;7.55;94.01;98845.94;5095737;28;20468;-81
2021/03/22 17:30:28;;;;;;;12.03;6.90;;;6.80;99.90;;;7.52;94.76;98852.25;5095923;28;20907;-81
2021/03/22 17:37:03;;;;;;;22.07;9.10;;;6.70;99.90;;;7.43;97.21;98857.50;5095340;28;20820;-81
2021/03/22 17:43:38;;;;;;;13.83;7.30;;;6.50;99.90;;;7.35;100.00;98863.47;5095649;28;20771;-81
2021/03/22 17:50:16;;;;;;;10.00;7.53;;;6.40;99.90;;;7.22;100.00;98869.97;5095231;28;20427;-82
2021/03/22 17:56:51;;;;;;;11.13;7.10;;;6.40;99.90;;;7.28;100.00;98878.03;5095407;28;20795;-81
2021/03/22 18:03:27;;;;;;;9.93;7.57;;;6.40;99.90;;;7.21;100.00;98887.38;5095165;28;20419;-81
2021/03/22 18:10:01;;;;;;;11.27;7.47;;;6.30;99.90;;;7.16;100.00;98899.16;5094946;28;20510;-81
2021/03/22 18:16:39;;;;;;;16.73;7.20;;;6.10;99.90;;;7.05;100.00;98903.56;5094717;28;20938;-80
2021/03/22 18:23:07;;;;;;;13.30;7.50;;;6.20;99.90;;;7.10;100.00;98913.56;5094539;28;20418;-81
2021/03/22 18:29:41;;;;;;;12.30;7.20;;;6.30;99.90;;;6.96;100.00;98919.22;5094335;28;20455;-81
2021/03/22 18:36:16;;;;;;;8.00;5.90;;;6.10;99.90;;;6.91;100.00;98916.22;5094077;28;20520;-81
2021/03/22 18:42:56;;;;;;;10.53;6.60;;;6.20;99.90;;;6.98;100.00;98935.50;5094213;28;20423;-80
2021/03/22 18:49:24;;;;;;;13.40;7.90;;;6.10;99.90;;;6.67;100.00;98945.28;5093154;28;20419;-80
2021/03/22 18:56:01;;;;;;;14.63;8.30;;;5.70;99.90;;;6.69;100.00;98942.56;5093934;28;20540;-81
2021/03/22 19:02:34;;;;;;;16.13;8.40;;;5.80;99.90;;;6.72;100.00;98947.47;5093740;28;20498;-80
2021/03/22 19:09:09;;;;;;;28.87;15.57;;;6.00;99.90;;;6.82;100.00;98943.91;5094412;28;20422;-81
2021/03/22 19:20:25;;;;;;;7.37;5.60;;;5.80;99.90;;;6.77;100.00;98958.28;5093445;28;20493;-80
2021/03/22 19:26:53;;;;;;;11.57;5.77;;;6.00;99.90;;;6.76;100.00;98965.25;5093197;28;20477;-80
2021/03/22 19:33:27;;;;;;;13.73;5.70;;;5.90;99.90;;;6.65;100.00;98968.00;5093204;28;20910;-80
2021/03/22 19:40:03;;;;;;;10.87;6.47;;;5.90;99.90;;;6.68;100.00;98967.72;5093243;28;20458;-80
2021/03/22 19:46:40;;;;;;;18.67;5.83;;;5.90;99.90;;;6.73;100.00;98972.53;5092929;28;20883;-81
2021/03/22 19:53:23;;;;;;;8.17;5.80;;;5.90;99.90;;;6.72;100.00;98981.25;5093049;28;20435;-80
2021/03/22 19:59:57;;;;;;;14.30;6.10;;;5.90;99.90;;;6.69;100.00;98984.97;5093311;28;20438;-81
2021/03/22 20:06:32;;;;;;;8.80;5.60;;;5.70;99.90;;;6.60;100.00;98983.19;5092878;28;20427;-81
2021/03/22 20:13:06;;;;;;;36.60;6.73;;;5.70;99.90;;;6.51;100.00;98995.25;5092609;28;20426;-81
2021/03/22 20:19:54;;;;;;;14.10;5.23;;;5.70;99.90;;;6.53;100.00;98995.91;5093031;28;20481;-81
2021/03/22 20:26:31;;;;;;;9.70;5.33;;;5.80;99.90;;;6.56;100.00;98985.25;5092577;28;20767;-81
2021/03/22 20:33:06;;;;;;;18.10;5.87;;;5.60;99.90;;;6.44;100.00;98988.97;5092487;28;20422;-81
2021/03/22 20:39:42;;;;;;;12.40;5.00;;;5.60;99.90;;;6.46;100.00;98983.59;5092305;28;20768;-81
2021/03/22 20:46:09;;;;;;;10.73;5.63;;;5.60;99.90;;;6.39;100.00;98985.94;5092493;28;20849;-81
2021/03/22 20:52:43;;;;;;;13.40;7.00;;;5.50;99.90;;;6.42;100.00;98988.25;5092133;28;20544;-81
2021/03/22 20:59:18;;;;;;;14.70;6.60;;;5.60;99.90;;;6.43;100.00;98983.88;5092444;28;20517;-82
2021/03/22 21:05:53;;;;;;;12.40;6.43;;;5.50;99.90;;;6.38;100.00;98986.09;5092082;28;20414;-81
2021/03/22 21:12:20;;;;;;;18.50;6.87;;;5.50;99.90;;;6.40;100.00;98986.75;5092000;28;21036;-81
2021/03/22 21:23:52;;;;;;;11.40;5.60;;;5.50;99.90;;;6.36;100.00;98994.00;5075395;28;20560;-81
2021/03/22 21:30:29;;;;;;;11.07;5.60;;;5.50;99.90;;;6.22;100.00;98985.78;5074955;28;20450;-81
2021/03/22 21:37:04;;;;;;;11.53;6.33;;;5.30;99.90;;;6.26;100.00;98993.19;5075343;28;20408;-81
2021/03/22 21:43:33;;;;;;;19.20;6.93;;;5.50;99.90;;;6.36;100.00;98988.81;5074991;28;20428;-80
2021/03/22 21:50:09;;;;;;;13.30;6.17;;;5.50;99.90;;;6.39;100.00;98990.31;5074558;28;20550;-81
2021/03/22 21:56:44;;;;;;;13.60;6.53;;;5.50;99.90;;;6.33;100.00;98994.28;5074570;28;20838;-81
2021/03/22 22:03:22;;;;;;;13.93;5.97;;;5.40;99.90;;;6.31;100.00;98985.00;5074829;28;20495;-81
2021/03/22 22:09:49;;;;;;;14.67;8.17;;;5.60;99.90;;;6.37;100.00;98985.25;5074349;28;20510;-81
2021/03/22 22:16:17;;;;;;;10.90;5.50;;;5.60;99.90;;;6.31;100.00;98980.63;5074086;28;20505;-80
2021/03/22 22:23:19;;;;;;;14.57;7.63;;;5.50;99.90;;;6.35;100.00;98968.97;5094301;28;20414;-80
2021/03/22 22:29:53;;;;;;;12.63;6.83;;;5.40;99.90;;;6.33;100.00;98973.50;5094480;28;20477;-81
2021/03/22 22:36:27;;;;;;;12.67;7.30;;;5.50;99.90;;;6.32;100.00;98976.22;5094412;28;20535;-80
2021/03/22 22:42:56;;;;;;;11.27;6.50;;;5.50;99.90;;;6.31;100.00;98977.22;5094080;28;20940;-80
2021/03/22 22:49:29;;;;;;;17.30;6.23;;;5.40;99.90;;;6.28;100.00;98972.28;5093892;28;20422;-81
2021/03/22 22:56:04;;;;;;;18.53;6.40;;;5.50;99.90;;;6.32;100.00;98982.25;5093771;28;20630;-81
2021/03/22 23:02:39;;;;;;;9.10;5.03;;;5.50;99.90;;;6.26;100.00;98981.97;5093585;28;20519;-81
2021/03/22 23:09:13;;;;;;;8.07;4.77;;;5.30;99.90;;;6.26;100.00;98987.16;5093833;28;20502;-81
2021/03/22 23:15:49;;;;;;;17.73;7.00;;;5.40;99.90;;;6.27;100.00;98983.63;5093206;28;20489;-81
2021/03/22 23:22:48;;;;;;;12.17;6.33;;;5.50;99.90;;;6.24;100.00;98983.91;5093362;28;20816;-81
2021/03/22 23:29:24;;;;;;;13.67;5.87;;;5.50;99.90;;;6.29;100.00;98982.53;5093180;28;20511;-81
2021/03/22 23:36:01;;;;;;;12.70;6.60;;;5.40;99.90;;;6.21;100.00;98979.81;5092366;28;20477;-86
2021/03/22 23:42:36;;;;;;;20.63;5.57;;;5.30;99.90;;;6.24;100.00;99000.31;5092914;28;20835;-81
2021/03/22 23:49:12;;;;;;;10.07;5.53;;;5.50;99.90;;;6.28;100.00;98991.25;5092973;28;20419;-80
2021/03/22 23:55:39;;;;;;;11.80;4.90;;;5.50;99.90;;;6.25;100.00;98982.97;5092709;28;20467;-80
